Time;durP1;ratioP1;P1;durP2;ratioP2;P2;SDS_P1;SDS_P2;PMS_P1;PMS_P2;Temp;Humidity;BMP_temperature;BMP_pressure;BME280_temperature;BME280_humidity;BME280_pressure;Samples;Min_cycle;Max_cycle;Signal;HPM_P1;HPM_P2
2024/02/10 00:01:08;;;;;;;11.17;5.90;;;;;;;11.85;73.57;92844.69;4957519;29;20205;-85
2024/02/10 00:03:35;;;;;;;10.10;6.10;;;;;;;11.89;73.59;92850.91;4955707;29;20318;-83
2024/02/10 00:06:02;;;;;;;9.10;6.07;;;;;;;11.82;73.26;92834.88;4940273;29;20225;-84
2024/02/10 00:08:29;;;;;;;8.10;5.60;;;;;;;11.84;73.17;92841.34;4940047;29;20201;-84
2024/02/10 00:10:56;;;;;;;8.07;5.80;;;;;;;11.76;73.41;92841.81;4941306;29;20233;-84
2024/02/10 00:13:24;;;;;;;10.63;6.57;;;;;;;11.58;73.92;92842.97;4957434;28;20236;-84
2024/02/10 00:15:50;;;;;;;11.00;5.93;;;;;;;11.63;73.82;92853.31;4939784;29;20225;-84
2024/02/10 00:18:18;;;;;;;8.30;6.03;;;;;;;11.61;74.33;92860.53;4952744;29;20663;-84
2024/02/10 00:20:45;;;;;;;9.00;5.73;;;;;;;11.55;74.51;92863.31;4956198;29;20205;-84
2024/02/10 00:23:11;;;;;;;8.63;5.70;;;;;;;11.57;74.65;92866.41;4950375;29;20216;-84
2024/02/10 00:25:38;;;;;;;10.70;5.83;;;;;;;11.65;74.40;92861.59;4962550;28;20273;-85
2024/02/10 00:28:06;;;;;;;9.53;5.90;;;;;;;11.71;74.24;92858.03;4977530;28;20216;-84
2024/02/10 00:30:34;;;;;;;8.50;5.80;;;;;;;11.67;73.94;92851.03;4977231;28;20211;-85
2024/02/10 00:33:01;;;;;;;10.57;6.43;;;;;;;11.53;74.47;92855.84;4970466;28;20205;-85
2024/02/10 00:35:27;;;;;;;7.07;5.20;;;;;;;11.45;74.89;92860.69;4948849;29;20233;-84
2024/02/10 00:37:56;;;;;;;8.43;5.73;;;;;;;11.46;74.78;92869.97;4940227;29;20217;-84
2024/02/10 00:40:22;;;;;;;11.83;6.70;;;;;;;11.50;75.11;92869.22;4937856;29;20604;-84
2024/02/10 00:42:51;;;;;;;10.30;6.13;;;;;;;11.55;74.74;92861.50;4939606;29;20205;-83
2024/02/10 00:45:21;;;;;;;7.93;5.47;;;;;;;11.62;74.39;92862.09;4938581;29;20720;-85
2024/02/10 00:47:49;;;;;;;11.27;6.60;;;;;;;11.64;74.01;92864.41;4938859;29;20201;-84
2024/02/10 00:50:18;;;;;;;10.83;5.67;;;;;;;11.64;74.41;92872.13;4953027;28;20216;-84
2024/02/10 00:52:49;;;;;;;10.97;6.10;;;;;;;11.63;74.18;92866.22;4959944;29;20212;-84
2024/02/10 00:55:16;;;;;;;8.03;5.57;;;;;;;11.63;74.57;92866.22;4945117;29;20931;-84
2024/02/10 00:57:42;;;;;;;11.50;6.13;;;;;;;11.60;74.41;92868.50;4940721;29;20204;-83
2024/02/10 01:00:11;;;;;;;12.03;6.33;;;;;;;11.52;74.47;92863.84;4940666;29;20248;-83
2024/02/10 01:02:38;;;;;;;9.43;5.70;;;;;;;11.44;74.68;92875.38;4940266;29;20233;-84
2024/02/10 01:05:08;;;;;;;9.80;6.30;;;;;;;11.46;74.80;92875.91;4951862;29;20217;-84
2024/02/10 01:07:35;;;;;;;10.00;6.10;;;;;;;11.45;75.18;92876.16;4960344;29;20216;-84
2024/02/10 01:10:02;;;;;;;12.20;6.10;;;;;;;11.47;74.80;92880.03;4960534;29;20239;-83
2024/02/10 01:12:28;;;;;;;10.07;5.93;;;;;;;11.45;74.69;92861.47;4954838;29;20211;-83
2024/02/10 01:14:57;;;;;;;10.10;5.87;;;;;;;11.45;74.60;92864.03;4959105;28;20723;-84
2024/02/10 01:17:24;;;;;;;11.63;6.33;;;;;;;11.32;74.78;92861.91;4959379;29;20251;-83
2024/02/10 01:19:51;;;;;;;14.40;6.17;;;;;;;11.28;75.02;92864.19;4967836;28;20344;-84
2024/02/10 01:22:22;;;;;;;10.23;6.53;;;;;;;11.26;74.88;92860.31;4960798;28;20212;-84
2024/02/10 01:24:53;;;;;;;8.63;5.67;;;;;;;11.24;75.24;92860.56;4945184;29;20233;-84
2024/02/10 01:27:20;;;;;;;8.50;5.60;;;;;;;11.16;75.26;92863.56;4941097;29;20265;-83
2024/02/10 01:29:47;;;;;;;8.27;6.10;;;;;;;11.21;75.29;92868.00;4940679;29;20688;-83
2024/02/10 01:32:19;;;;;;;11.07;6.00;;;;;;;11.20;75.16;92856.13;4942391;29;20213;-84
2024/02/10 01:34:47;;;;;;;9.37;5.90;;;;;;;11.07;75.74;92878.72;4946090;29;21579;-84
2024/02/10 01:37:17;;;;;;;12.00;6.00;;;;;;;11.04;75.93;92881.00;4939307;29;20208;-84
2024/02/10 01:39:45;;;;;;;10.87;5.77;;;;;;;10.97;76.25;92894.06;4957686;29;20887;-84
2024/02/10 01:42:15;;;;;;;8.50;5.60;;;;;;;10.94;76.58;92888.66;4947782;29;20205;-84
2024/02/10 01:44:43;;;;;;;8.40;6.03;;;;;;;10.90;76.37;92888.34;4941585;29;20694;-84
2024/02/10 01:47:10;;;;;;;10.37;5.90;;;;;;;10.88;76.97;92897.34;4939319;29;20209;-83
2024/02/10 01:49:37;;;;;;;8.70;6.37;;;;;;;10.89;76.76;92893.75;4939103;29;20213;-84
2024/02/10 01:52:04;;;;;;;8.83;6.43;;;;;;;10.85;76.90;92890.09;4938498;29;20597;-84
2024/02/10 01:54:31;;;;;;;10.10;6.03;;;;;;;10.85;76.70;92887.53;4947403;29;20235;-85
2024/02/10 01:56:59;;;;;;;7.70;5.43;;;;;;;10.86;76.86;92882.13;4940495;29;20210;-84
2024/02/10 01:59:27;;;;;;;11.33;5.80;;;;;;;10.87;76.45;92872.63;4937923;29;20876;-84
2024/02/10 02:01:55;;;;;;;10.43;6.37;;;;;;;10.82;76.37;92863.06;4938871;29;20209;-84
2024/02/10 02:04:22;;;;;;;11.17;6.50;;;;;;;10.85;76.39;92865.13;4939095;29;20657;-83
2024/02/10 02:06:49;;;;;;;11.20;6.30;;;;;;;10.77;76.51;92863.03;4938870;29;20214;-83
2024/02/10 02:09:16;;;;;;;8.27;6.23;;;;;;;10.77;76.43;92862.25;4939762;29;20209;-83
2024/02/10 02:11:48;;;;;;;10.13;6.07;;;;;;;10.78;76.77;92882.56;4946360;29;20209;-84
2024/02/10 02:14:16;;;;;;;9.13;5.90;;;;;;;10.78;76.69;92881.78;4946061;29;20592;-84
2024/02/10 02:16:46;;;;;;;11.73;6.10;;;;;;;10.79;76.26;92866.09;4956934;29;20247;-84
2024/02/10 02:19:13;;;;;;;12.47;6.07;;;;;;;10.75;76.42;92874.59;4957380;29;20256;-84
2024/02/10 02:21:40;;;;;;;8.53;5.73;;;;;;;10.73;76.44;92870.44;4956615;29;20204;-84
2024/02/10 02:24:08;;;;;;;12.27;6.33;;;;;;;10.66;76.31;92874.22;4956161;29;20209;-84
2024/02/10 02:26:34;;;;;;;9.90;5.77;;;;;;;10.64;76.30;92871.91;4954110;29;20268;-84
2024/02/10 02:29:01;;;;;;;8.77;6.10;;;;;;;10.63;76.86;92878.06;4943313;29;20213;-83
2024/02/10 02:31:28;;;;;;;12.17;6.33;;;;;;;10.52;77.12;92883.34;4936985;29;20205;-84
2024/02/10 02:33:56;;;;;;;11.53;5.97;;;;;;;10.35;77.89;92909.94;4936838;29;20662;-84
2024/02/10 02:36:23;;;;;;;8.47;6.27;;;;;;;10.37;78.02;92905.34;4938150;29;20229;-84
2024/02/10 02:38:49;;;;;;;8.27;6.27;;;;;;;10.39;78.17;92912.81;4937595;29;20355;-84
2024/02/10 02:41:17;;;;;;;9.73;5.83;;;;;;;10.37;78.09;92917.41;4941979;29;20201;-84
2024/02/10 02:43:45;;;;;;;9.47;5.80;;;;;;;10.41;77.92;92915.91;4951408;29;20212;-84
2024/02/10 02:46:13;;;;;;;11.03;6.53;;;;;;;10.25;78.17;92911.59;4938741;29;20226;-84
2024/02/10 02:48:42;;;;;;;9.07;6.80;;;;;;;10.29;78.63;92933.25;4938075;29;20840;-83
2024/02/10 02:51:08;;;;;;;11.23;6.57;;;;;;;10.31;78.48;92921.72;4956942;29;20201;-84
2024/02/10 02:53:35;;;;;;;12.97;7.03;;;;;;;10.28;78.34;92906.75;4954816;29;20274;-84
2024/02/10 02:56:01;;;;;;;10.63;6.53;;;;;;;10.27;78.59;92904.44;4937878;29;20229;-85
2024/02/10 02:58:31;;;;;;;10.40;6.70;;;;;;;10.29;78.78;92905.75;4940686;29;20209;-85
2024/02/10 03:00:58;;;;;;;13.63;6.83;;;;;;;10.30;78.89;92916.81;4950918;29;20198;-85
2024/02/10 03:03:25;;;;;;;8.33;5.80;;;;;;;10.33;79.01;92919.69;4952781;29;20299;-84
2024/02/10 03:05:53;;;;;;;11.73;7.10;;;;;;;10.35;78.56;92909.94;4938394;29;20706;-84
2024/02/10 03:08:20;;;;;;;8.60;6.57;;;;;;;10.25;79.03;92920.09;4948563;29;20207;-84
2024/02/10 03:10:48;;;;;;;12.37;6.43;;;;;;;10.23;79.25;92918.78;4956968;28;20287;-84
2024/02/10 03:13:15;;;;;;;8.17;6.80;;;;;;;10.28;79.33;92922.19;4956270;29;20200;-84
2024/02/10 03:15:47;;;;;;;8.27;6.10;;;;;;;10.31;79.13;92910.66;4955101;29;20240;-84
2024/02/10 03:18:13;;;;;;;10.83;6.67;;;;;;;10.34;78.93;92905.81;4957039;29;20219;-84
2024/02/10 03:20:40;;;;;;;10.37;7.07;;;;;;;10.39;78.53;92899.97;4956907;29;20208;-84
2024/02/10 03:23:12;;;;;;;9.73;6.70;;;;;;;10.36;78.67;92888.34;4956175;29;20196;-84
2024/02/10 03:25:41;;;;;;;11.67;6.57;;;;;;;10.30;78.87;92896.25;4957389;29;20233;-84
2024/02/10 03:28:08;;;;;;;9.30;6.77;;;;;;;10.25;79.25;92899.53;4956051;29;20209;-87
2024/02/10 03:30:34;;;;;;;9.77;7.10;;;;;;;10.24;79.32;92894.63;4953860;29;20276;-84
2024/02/10 03:33:02;;;;;;;13.70;7.00;;;;;;;10.26;79.36;92905.44;4955530;29;20219;-84
2024/02/10 03:35:32;;;;;;;10.03;6.73;;;;;;;10.29;79.82;92916.03;4948382;29;20229;-84
2024/02/10 03:37:58;;;;;;;9.57;6.87;;;;;;;10.31;79.73;92929.44;4937454;29;20292;-84
2024/02/10 03:40:25;;;;;;;11.33;6.77;;;;;;;10.36;79.47;92908.16;4936334;29;20942;-84
2024/02/10 03:42:51;;;;;;;10.10;7.00;;;;;;;10.29;80.32;92928.13;4936835;29;20229;-84
2024/02/10 03:45:18;;;;;;;10.73;6.67;;;;;;;10.33;79.47;92911.19;4935971;29;20281;-84
2024/02/10 03:47:44;;;;;;;10.13;7.10;;;;;;;10.38;79.45;92900.97;4947524;29;20219;-85
2024/02/10 03:50:13;;;;;;;12.87;7.13;;;;;;;10.38;78.95;92899.19;4954538;29;20208;-84
2024/02/10 03:52:40;;;;;;;9.33;6.30;;;;;;;10.37;78.58;92887.34;4954840;29;20205;-84
2024/02/10 03:55:08;;;;;;;10.70;7.33;;;;;;;10.35;78.53;92881.66;4954323;29;20262;-85
2024/02/10 03:57:35;;;;;;;9.47;6.23;;;;;;;10.36;78.64;92880.63;4954483;29;20208;-84
2024/02/10 04:00:03;;;;;;;11.97;7.87;;;;;;;10.36;78.44;92872.91;4954622;29;20200;-84
2024/02/10 04:02:33;;;;;;;8.67;6.67;;;;;;;10.29;78.79;92881.84;4952412;29;20220;-83
2024/02/10 04:05:03;;;;;;;12.27;6.70;;;;;;;10.29;79.33;92898.03;4954498;29;20228;-84
2024/02/10 04:07:31;;;;;;;12.07;7.33;;;;;;;10.22;79.55;92900.00;4954788;29;20207;-84
2024/02/10 04:09:57;;;;;;;9.20;6.53;;;;;;;10.25;79.40;92896.19;4954670;29;20275;-84
2024/02/10 04:12:24;;;;;;;9.57;6.80;;;;;;;10.22;78.71;92871.72;4952771;29;20216;-83
2024/02/10 04:14:50;;;;;;;7.73;6.23;;;;;;;10.20;78.77;92873.75;4934977;29;20233;-84
2024/02/10 04:17:16;;;;;;;10.20;7.17;;;;;;;10.16;78.61;92867.53;4945772;29;20197;-85
2024/02/10 04:19:43;;;;;;;10.10;7.03;;;;;;;10.13;78.81;92872.38;4952241;29;20248;-85
2024/02/10 04:22:09;;;;;;;10.20;7.23;;;;;;;10.14;78.73;92872.13;4953375;29;20372;-84
2024/02/10 04:24:37;;;;;;;11.40;6.90;;;;;;;10.10;78.47;92858.19;4910549;29;20245;-84
2024/02/10 04:27:06;;;;;;;12.13;6.97;;;;;;;10.11;78.44;92861.53;4935825;29;20205;-85
2024/02/10 04:29:35;;;;;;;11.03;6.90;;;;;;;10.09;78.51;92863.56;4936180;29;20212;-84
2024/02/10 04:32:03;;;;;;;10.00;6.30;;;;;;;10.12;78.56;92871.59;4935763;29;20215;-84
2024/02/10 04:34:31;;;;;;;10.10;6.17;;;;;;;10.12;78.28;92866.44;4939958;29;20673;-85
2024/02/10 04:36:57;;;;;;;9.90;5.87;;;;;;;10.13;77.61;92854.38;4954005;29;20235;-84
2024/02/10 04:39:24;;;;;;;8.83;6.50;;;;;;;10.10;77.68;92860.78;4955175;29;20945;-84
2024/02/10 04:41:57;;;;;;;7.90;6.40;;;;;;;10.09;77.47;92843.78;4956310;29;20212;-85
2024/02/10 04:44:24;;;;;;;10.67;6.47;;;;;;;10.10;77.22;92840.19;4952991;29;20594;-87
2024/02/10 04:46:50;;;;;;;6.73;6.00;;;;;;;10.10;77.31;92844.56;4945155;29;20218;-87
2024/02/10 04:49:18;;;;;;;7.70;6.13;;;;;;;10.11;77.46;92851.25;4935727;29;20206;-84
2024/02/10 04:51:44;;;;;;;7.80;6.00;;;;;;;10.03;77.46;92845.53;4943523;29;20205;-84
2024/02/10 04:54:12;;;;;;;8.93;5.90;;;;;;;10.02;77.50;92843.19;4950415;29;20204;-84
2024/02/10 04:56:38;;;;;;;10.57;6.00;;;;;;;10.03;77.47;92842.16;4936972;29;20324;-84
2024/02/10 04:59:06;;;;;;;8.57;6.40;;;;;;;9.99;77.53;92846.25;4936355;29;20874;-85
2024/02/10 05:01:33;;;;;;;9.33;6.23;;;;;;;9.90;77.96;92850.25;4954371;29;20201;-83
2024/02/10 05:04:00;;;;;;;10.80;6.20;;;;;;;9.89;78.19;92864.13;4954438;29;20205;-84
2024/02/10 05:06:28;;;;;;;8.53;5.80;;;;;;;9.84;78.89;92885.38;4954533;29;20312;-84
2024/02/10 05:08:54;;;;;;;10.60;5.80;;;;;;;9.84;78.96;92887.94;4948287;29;20256;-84
2024/02/10 05:11:21;;;;;;;7.13;5.67;;;;;;;9.79;79.63;92912.81;4953608;29;20236;-84
2024/02/10 05:13:48;;;;;;;10.57;6.07;;;;;;;9.77;80.33;92922.56;4953566;29;20197;-84
2024/02/10 05:16:17;;;;;;;9.03;6.17;;;;;;;9.83;80.69;92937.00;4953912;29;20237;-84
2024/02/10 05:18:44;;;;;;;10.77;6.60;;;;;;;9.85;80.94;92935.75;4939061;29;20831;-84
2024/02/10 05:21:17;;;;;;;9.97;6.40;;;;;;;9.88;81.13;92948.13;4938120;29;20201;-84
2024/02/10 05:23:48;;;;;;;11.50;6.30;;;;;;;9.92;81.22;92956.94;4951204;29;20201;-84
2024/02/10 05:26:16;;;;;;;10.70;5.90;;;;;;;9.90;81.70;92956.38;4952767;29;20709;-84
2024/02/10 05:28:43;;;;;;;11.63;6.23;;;;;;;9.91;81.86;92967.44;4951064;29;20208;-87
2024/02/10 05:31:11;;;;;;;8.43;6.40;;;;;;;9.94;82.03;92967.75;4951534;29;20259;-86
2024/02/10 05:33:43;;;;;;;13.63;7.47;;;;;;;10.00;81.89;92956.53;4951565;28;20212;-84
2024/02/10 05:36:10;;;;;;;11.50;7.13;;;;;;;10.03;81.85;92947.53;4956627;29;20722;-84
2024/02/10 05:38:38;;;;;;;11.63;7.37;;;;;;;9.97;82.26;92944.16;4939676;29;20214;-84
2024/02/10 05:41:05;;;;;;;8.67;6.80;;;;;;;9.83;83.19;92952.41;4951664;29;20229;-83
2024/02/10 05:43:32;;;;;;;12.80;7.20;;;;;;;9.82;83.41;92950.84;4937393;29;20205;-84
2024/02/10 05:46:01;;;;;;;9.27;6.40;;;;;;;9.79;83.96;92959.06;4949714;29;20232;-84
2024/02/10 05:48:31;;;;;;;10.20;6.93;;;;;;;9.88;83.38;92949.94;4941151;29;20796;-85
2024/02/10 05:50:59;;;;;;;9.20;6.30;;;;;;;9.97;82.57;92927.97;4937542;29;20208;-84
2024/02/10 05:53:24;;;;;;;11.03;6.87;;;;;;;10.03;82.12;92922.63;4937285;29;20744;-84
2024/02/10 05:55:52;;;;;;;12.27;7.30;;;;;;;10.05;81.74;92907.75;4948747;29;20220;-84
2024/02/10 05:58:22;;;;;;;12.70;6.77;;;;;;;10.07;81.63;92904.16;4946669;29;20214;-84
2024/02/10 06:00:49;;;;;;;11.57;7.07;;;;;;;10.07;81.66;92902.38;4955710;29;20216;-84
2024/02/10 06:03:15;;;;;;;11.80;6.97;;;;;;;10.04;81.34;92898.47;4956083;29;20200;-84
2024/02/10 06:05:42;;;;;;;9.90;6.60;;;;;;;9.96;81.67;92896.34;4956672;29;20221;-84
2024/02/10 06:08:12;;;;;;;9.60;7.07;;;;;;;9.92;82.17;92902.97;4947329;29;20213;-83
2024/02/10 06:10:41;;;;;;;11.43;6.17;;;;;;;9.96;81.90;92913.56;4935569;29;20673;-84
2024/02/10 06:13:13;;;;;;;10.07;6.40;;;;;;;10.02;81.99;92908.22;4948057;29;20209;-84
2024/02/10 06:15:41;;;;;;;10.23;6.50;;;;;;;10.08;81.38;92895.44;4947710;29;20252;-83
2024/02/10 06:18:08;;;;;;;9.40;6.60;;;;;;;10.10;81.10;92891.63;4953237;29;20212;-83
2024/02/10 06:20:36;;;;;;;9.27;6.43;;;;;;;10.12;81.02;92887.00;4954164;29;20301;-84
2024/02/10 06:23:05;;;;;;;7.47;6.20;;;;;;;10.12;80.52;92878.53;4951740;29;20202;-85
2024/02/10 06:25:33;;;;;;;8.93;6.03;;;;;;;10.13;80.35;92872.38;4946662;29;20236;-84
2024/02/10 06:28:02;;;;;;;8.53;6.60;;;;;;;10.10;79.98;92860.00;4951778;29;20209;-87
2024/02/10 06:30:30;;;;;;;8.70;6.20;;;;;;;10.05;79.79;92856.34;4949766;29;20204;-85
2024/02/10 06:32:58;;;;;;;8.27;6.30;;;;;;;10.09;79.89;92859.22;4940434;29;20261;-85
2024/02/10 06:35:26;;;;;;;9.13;6.27;;;;;;;10.05;79.55;92848.63;4946249;29;20221;-85
2024/02/10 06:37:54;;;;;;;7.20;5.77;;;;;;;9.87;80.79;92886.69;4936772;29;20236;-84
2024/02/10 06:40:21;;;;;;;8.60;6.00;;;;;;;9.83;80.26;92891.53;4953994;29;20571;-84
2024/02/10 06:42:52;;;;;;;7.63;5.73;;;;;;;9.84;79.97;92887.94;4952337;29;20208;-85
2024/02/10 06:45:22;;;;;;;8.43;5.93;;;;;;;9.72;82.06;92928.38;4947499;28;20222;-85
2024/02/10 06:47:58;;;;;;;9.10;6.30;;;;;;;9.76;81.41;92913.28;4950607;29;20350;-85
2024/02/10 06:50:26;;;;;;;8.70;6.27;;;;;;;9.64;82.32;92928.78;4953693;29;20215;-84
2024/02/10 06:52:53;;;;;;;7.43;5.80;;;;;;;9.67;81.92;92918.81;4935958;29;20212;-85
2024/02/10 06:55:37;;;;;;;;;;;;;;;;;;;;;
2024/02/10 06:58:05;;;;;;;9.30;6.70;;;;;;;9.72;81.74;92922.47;4941049;29;20231;-85
2024/02/10 07:04:05;;;;;;;11.67;6.37;;;;;;;9.54;82.12;92926.84;4911136;29;20208;-85
2024/02/10 07:07:07;;;;;;;8.70;6.30;;;;;;;9.65;81.63;92915.69;4954855;29;20280;-85
2024/02/10 07:09:35;;;;;;;8.20;5.87;;;;;;;9.65;81.81;92915.69;4955121;29;20201;-85
2024/02/10 07:12:01;;;;;;;8.53;6.50;;;;;;;9.78;80.98;92903.56;4954607;29;20201;-84
2024/02/10 07:14:51;;;;;;;8.77;6.23;;;;;;;9.76;80.86;92896.09;4954974;29;20204;-85
2024/02/10 07:17:18;;;;;;;9.27;7.03;;;;;;;9.88;80.29;92893.41;4948439;29;20731;-84
2024/02/10 07:20:01;;;;;;;8.50;6.23;;;;;;;9.76;80.15;92888.38;4935164;29;20205;-86
2024/02/10 07:22:45;;;;;;;7.63;5.93;;;;;;;9.62;81.51;92915.41;4947064;29;20213;-85
2024/02/10 07:25:13;;;;;;;8.87;5.63;;;;;;;9.82;81.13;92914.88;4945598;29;20237;-85
2024/02/10 07:27:39;;;;;;;7.67;6.20;;;;;;;10.04;79.94;92898.47;4953120;29;20196;-85
2024/02/10 07:30:10;;;;;;;11.43;6.20;;;;;;;10.24;79.14;92874.06;4950175;29;20208;-85
2024/02/10 07:32:36;;;;;;;8.97;5.90;;;;;;;10.37;78.16;92847.97;4947971;29;20212;-84
2024/02/10 07:35:04;;;;;;;7.73;5.90;;;;;;;10.46;77.46;92836.22;4947688;29;20232;-85
2024/02/10 07:37:34;;;;;;;11.00;5.87;;;;;;;10.49;76.92;92815.16;4952234;29;20252;-85
2024/02/10 07:40:00;;;;;;;6.80;6.07;;;;;;;10.51;76.89;92814.94;4954033;28;20200;-85
2024/02/10 07:42:27;;;;;;;10.03;5.77;;;;;;;10.41;77.90;92833.59;4946580;29;20200;-84
2024/02/10 07:44:55;;;;;;;10.63;6.03;;;;;;;10.57;78.11;92858.47;4941177;29;20701;-85
2024/02/10 07:47:26;;;;;;;8.73;5.93;;;;;;;10.67;77.92;92853.41;4931226;29;20209;-85
2024/02/10 07:49:53;;;;;;;8.00;5.57;;;;;;;10.80;77.95;92854.00;4937147;29;20288;-85
2024/02/10 07:52:19;;;;;;;8.53;6.07;;;;;;;10.95;77.29;92828.44;4945055;29;20211;-85
2024/02/10 07:54:47;;;;;;;10.13;5.77;;;;;;;11.02;76.63;92809.16;4947467;29;20208;-85
2024/02/10 07:57:19;;;;;;;9.57;5.53;;;;;;;11.11;76.24;92786.31;4927059;29;20308;-85
2024/02/10 07:59:47;;;;;;;9.03;6.23;;;;;;;11.14;75.56;92769.59;4949284;29;20311;-85
2024/02/10 08:02:20;;;;;;;9.53;6.20;;;;;;;11.12;75.37;92759.56;4938952;29;20205;-85
2024/02/10 08:04:51;;;;;;;8.27;6.17;;;;;;;11.13;75.35;92765.47;4944011;29;20220;-85
2024/02/10 08:07:18;;;;;;;8.60;6.33;;;;;;;11.15;75.32;92771.16;4943701;29;20205;-84
2024/02/10 08:09:46;;;;;;;8.17;6.10;;;;;;;11.20;75.47;92777.09;4939295;29;20224;-84
2024/02/10 08:12:17;;;;;;;9.70;5.93;;;;;;;11.27;75.28;92784.59;4951028;29;20668;-83
2024/02/10 08:14:46;;;;;;;11.47;6.23;;;;;;;11.27;75.12;92764.78;4943578;29;20205;-84
2024/02/10 08:17:12;;;;;;;9.67;6.73;;;;;;;11.29;75.11;92767.09;4936940;29;20232;-84
2024/02/10 08:19:39;;;;;;;9.43;6.90;;;;;;;11.15;75.75;92781.44;4933978;29;20216;-84
2024/02/10 08:22:09;;;;;;;9.57;6.83;;;;;;;11.16;75.84;92785.56;4944857;29;20589;-84
2024/02/10 08:24:38;;;;;;;20.53;7.30;;;;;;;11.24;79.96;92906.13;4938410;29;20233;-84
2024/02/10 08:27:07;;;;;;;14.20;6.97;;;;;;;11.23;77.10;92825.53;4947460;29;20239;-84
2024/02/10 08:29:34;;;;;;;11.60;7.23;;;;;;;11.24;76.73;92824.50;4950137;29;20211;-86
2024/02/10 08:32:01;;;;;;;12.90;7.53;;;;;;;11.23;77.09;92827.31;4950756;29;20240;-84
2024/02/10 08:34:28;;;;;;;15.00;7.83;;;;;;;11.19;76.89;92832.19;4950754;29;20201;-85
2024/02/10 08:36:57;;;;;;;10.30;7.20;;;;;;;11.14;76.63;92829.59;4951219;29;20228;-85
2024/02/10 08:39:25;;;;;;;10.87;7.37;;;;;;;11.16;76.40;92831.94;4936905;29;21015;-85
2024/02/10 08:41:51;;;;;;;11.30;7.27;;;;;;;11.22;76.78;92836.06;4938389;29;20201;-85
2024/02/10 08:44:19;;;;;;;18.30;13.50;;;;;;;11.30;75.92;92820.16;4937443;29;20192;-84
2024/02/10 08:46:46;;;;;;;20.97;16.80;;;;;;;11.30;75.44;92818.38;4952065;29;20224;-84
2024/02/10 08:49:18;;;;;;;24.17;16.80;;;;;;;11.29;75.84;92816.81;4951323;29;20209;-83
2024/02/10 08:51:47;;;;;;;15.30;9.07;;;;;;;11.29;75.72;92806.50;4944419;29;20219;-84
2024/02/10 08:54:14;;;;;;;13.43;7.47;;;;;;;11.26;76.25;92816.53;4936945;29;20197;-84
2024/02/10 08:56:43;;;;;;;10.70;7.00;;;;;;;11.26;76.51;92831.97;4937037;29;20224;-84
2024/02/10 08:59:12;;;;;;;11.77;7.33;;;;;;;11.24;76.07;92832.22;4940647;29;20269;-85
2024/02/10 09:01:41;;;;;;;11.47;7.10;;;;;;;11.18;77.27;92869.25;4953072;29;20584;-83
2024/02/10 09:04:10;;;;;;;36.00;30.57;;;;;;;11.14;77.71;92867.44;4943302;29;20216;-85
2024/02/10 09:06:38;;;;;;;26.30;14.77;;;;;;;10.89;83.38;93014.72;4953756;29;20213;-85
2024/02/10 09:09:07;;;;;;;18.93;11.67;;;;;;;10.92;82.99;93021.97;4956964;28;20314;-83
2024/02/10 09:11:37;;;;;;;18.83;7.80;;;;;;;11.00;80.11;92941.72;4957784;29;20236;-86
2024/02/10 09:14:05;;;;;;;12.30;7.50;;;;;;;11.08;78.87;92902.66;4938667;29;20210;-84
2024/02/10 09:16:32;;;;;;;9.73;7.17;;;;;;;11.10;77.93;92882.59;4938205;29;20225;-84
2024/02/10 09:18:58;;;;;;;12.03;7.13;;;;;;;11.08;77.92;92882.84;4957205;29;20205;-84
2024/02/10 09:21:24;;;;;;;8.80;7.53;;;;;;;10.97;78.27;92881.19;4958529;29;20200;-84
2024/02/10 09:23:51;;;;;;;12.10;7.37;;;;;;;10.76;79.79;92909.59;4957661;29;20215;-85
2024/02/10 09:26:18;;;;;;;12.47;7.67;;;;;;;10.85;79.84;92916.63;4953786;29;20236;-84
2024/02/10 09:28:46;;;;;;;14.87;7.03;;;;;;;10.94;79.98;92906.66;4957077;29;20204;-84
2024/02/10 09:31:14;;;;;;;10.50;6.93;;;;;;;11.05;79.59;92908.28;4957935;29;20209;-84
2024/02/10 09:33:41;;;;;;;9.83;7.50;;;;;;;11.11;79.16;92894.44;4955447;29;20205;-85
2024/02/10 09:36:11;;;;;;;11.47;7.90;;;;;;;11.14;78.87;92890.63;4957287;29;20221;-85
2024/02/10 09:38:38;;;;;;;11.90;7.80;;;;;;;11.25;81.68;92952.25;4956493;29;20885;-86
2024/02/10 09:41:07;;;;;;;12.37;7.50;;;;;;;11.31;78.60;92874.00;4944862;29;20208;-86
2024/02/10 09:43:36;;;;;;;8.53;7.33;;;;;;;11.33;77.93;92863.47;4938030;29;20724;-84
2024/02/10 09:46:06;;;;;;;12.17;8.37;;;;;;;11.30;77.60;92862.16;4952152;29;20221;-84
2024/02/10 09:48:44;;;;;;;12.30;8.03;;;;;;;11.28;77.49;92858.25;4950729;29;20679;-84
2024/02/10 09:51:11;;;;;;;10.77;7.30;;;;;;;11.31;77.39;92861.13;4949150;29;20207;-84
2024/02/10 09:53:40;;;;;;;10.33;7.77;;;;;;;11.33;77.16;92850.59;4940896;29;20234;-85
2024/02/10 09:56:10;;;;;;;11.20;7.87;;;;;;;11.29;76.91;92837.41;4957655;29;20221;-85
2024/02/10 09:58:40;;;;;;;12.33;7.57;;;;;;;11.33;77.40;92848.78;4957659;29;20324;-85
2024/02/10 10:01:09;;;;;;;15.27;8.10;;;;;;;11.39;77.16;92839.25;4958406;29;20205;-84
2024/02/10 10:03:41;;;;;;;16.23;8.30;;;;;;;11.45;77.35;92855.53;4956201;29;20208;-84
2024/02/10 10:06:11;;;;;;;9.43;7.57;;;;;;;11.45;76.90;92856.31;4948929;29;20247;-84
2024/02/10 10:08:41;;;;;;;12.13;8.70;;;;;;;11.47;77.32;92861.22;4955574;29;20217;-85
2024/02/10 10:11:12;;;;;;;14.10;7.97;;;;;;;11.51;77.52;92864.84;4956985;29;20193;-84
2024/02/10 10:13:40;;;;;;;12.00;7.70;;;;;;;11.55;77.71;92866.66;4956649;29;20205;-84
2024/02/10 10:16:10;;;;;;;12.70;8.07;;;;;;;11.50;78.13;92878.75;4954764;29;20734;-84
2024/02/10 10:18:37;;;;;;;12.30;7.97;;;;;;;11.56;77.87;92878.53;4955602;29;20241;-84
2024/02/10 10:21:05;;;;;;;13.33;8.20;;;;;;;11.62;77.47;92867.22;4953826;28;20219;-85
2024/02/10 10:23:33;;;;;;;14.70;7.80;;;;;;;11.74;77.68;92864.44;4947690;29;20664;-85
2024/02/10 10:26:00;;;;;;;15.13;8.27;;;;;;;11.88;77.21;92852.72;4959025;29;20233;-85
2024/02/10 10:28:26;;;;;;;12.10;8.23;;;;;;;11.76;77.03;92837.44;4959548;29;20212;-84
2024/02/10 10:30:56;;;;;;;9.13;7.67;;;;;;;11.97;76.97;92846.03;4959421;29;20212;-84
2024/02/10 10:33:25;;;;;;;12.13;7.60;;;;;;;12.09;75.69;92792.47;4955656;29;20202;-85
2024/02/10 10:35:54;;;;;;;10.73;7.30;;;;;;;12.28;75.37;92777.28;4952478;29;20244;-85
2024/02/10 10:38:22;;;;;;;13.13;7.23;;;;;;;12.40;74.45;92753.81;4948419;29;20221;-84
2024/02/10 10:40:51;;;;;;;9.07;6.27;;;;;;;12.45;71.94;92676.41;4948834;29;20267;-83
2024/02/10 10:43:20;;;;;;;7.20;5.33;;;;;;;12.48;70.91;92629.47;4954510;29;20212;-84
2024/02/10 10:45:46;;;;;;;7.43;5.47;;;;;;;12.43;68.57;92514.13;4937006;29;20592;-84
2024/02/10 10:48:13;;;;;;;5.50;4.17;;;;;;;12.48;67.29;92438.53;4937318;29;20212;-84
2024/02/10 10:50:40;;;;;;;6.23;4.20;;;;;;;12.42;63.87;92288.16;4935907;29;20268;-84
2024/02/10 10:53:09;;;;;;;5.47;3.77;;;;;;;12.37;63.97;92262.38;4939414;29;20201;-83
2024/02/10 10:55:42;;;;;;;4.20;3.17;;;;;;;12.44;63.55;92238.88;4954526;29;20256;-84
2024/02/10 10:58:14;;;;;;;6.03;3.10;;;;;;;12.40;65.03;92267.00;4937332;29;20225;-85
2024/02/10 11:00:46;;;;;;;5.63;3.67;;;;;;;12.52;64.45;92265.88;4943441;29;20207;-85
2024/02/10 11:03:14;;;;;;;5.17;2.87;;;;;;;12.59;64.54;92271.53;4947015;29;20622;-84
2024/02/10 11:05:42;;;;;;;4.23;3.07;;;;;;;12.60;62.39;92162.88;4946957;29;20712;-84
2024/02/10 11:08:13;;;;;;;5.93;3.20;;;;;;;12.61;63.29;92194.59;4946536;29;20205;-84
2024/02/10 11:10:41;;;;;;;3.20;2.90;;;;;;;12.58;63.01;92184.81;4947981;29;20229;-83
2024/02/10 11:13:21;;;;;;;4.33;3.30;;;;;;;12.36;61.32;92100.91;4953730;29;20693;-84
2024/02/10 11:16:00;;;;;;;5.87;3.10;;;;;;;12.31;62.03;92134.53;4934922;29;20253;-84
2024/02/10 11:18:26;;;;;;;4.83;3.13;;;;;;;12.29;62.13;92131.44;4935605;29;20228;-85
2024/02/10 11:20:52;;;;;;;4.97;3.47;;;;;;;12.15;62.42;92114.25;4936359;29;20205;-84
2024/02/10 11:23:22;;;;;;;4.27;3.40;;;;;;;12.12;62.30;92123.34;4954144;29;20636;-84
2024/02/10 11:25:52;;;;;;;5.90;3.23;;;;;;;12.05;62.59;92133.19;4949519;29;20235;-85
2024/02/10 11:28:23;;;;;;;6.37;3.10;;;;;;;12.08;62.43;92140.38;4948406;29;20197;-83
2024/02/10 11:30:50;;;;;;;5.80;3.67;;;;;;;12.08;63.20;92155.84;4954820;28;20215;-84
2024/02/10 11:33:18;;;;;;;4.50;3.53;;;;;;;12.08;63.14;92166.16;4954901;29;20208;-85
2024/02/10 11:35:46;;;;;;;5.07;3.13;;;;;;;12.06;63.10;92163.06;4937711;29;20608;-85
2024/02/10 11:38:14;;;;;;;5.03;3.33;;;;;;;12.03;63.00;92155.88;4954786;29;20244;-85
2024/02/10 11:40:42;;;;;;;8.53;3.20;;;;;;;11.98;63.26;92161.81;4953962;29;20240;-83